Airfield :
LOGIN :

Register | Disclaimer

   EN    FR    IT 

 










Legend :    VFR   Marginal VFR   IFR   Intensive IFR   Very Intensive IFR
Visi :
Ceiling :
>= 8 km
>= 3000ft
5 to 8 km
1000 to 3000 ft
1500m to 5 km
500 to 1000 ft
800 to 1500m
200 to 500 ft
< 800m
< 200 ft
Symbols :   Thunderstorms  Fog  Heavy snow  Heavy precipitations  Wind > 20 kt
SIGMETs :     Misc.  Thunderstorms  Icing  Turbulence  Mountain Waves  Volcanic Ashes






- Airport Elevation : 209 ft
- IATA code : CLY


LFKC - Calvi

CURRENT METAR :
  • 011230Z AUTO 03006KT 360V070 9999 OVC064 13/04 Q1014 TEMPO FEW035TCU

EXPIRED METARs :
  • 011200Z AUTO 01006KT 320V050 9999 BKN064 14/05 Q1015 TEMPO FEW035TCU
  • 011130Z AUTO 03008KT 360V060 9999 BKN064 13/02 Q1015 TEMPO FEW035TCU
  • 011100Z AUTO 03007KT 350V060 9999 FEW066 14/03 Q1015 TEMPO FEW035TCU
  • 011030Z AUTO 01008KT 9999 FEW062 14/03 Q1015 TEMPO FEW035TCU
  • 011000Z AUTO 01005KT 320V050 9999 // SCT064 14/04 Q1015

TAF TAF LFKC
Valid from the 01 at 09:00 until the 02 at 09:00 UTC


010800Z 0109/0209 VRB02KT CAVOK TX14/0112Z TN05/0205Z
TEMPO 0111/0116 -SHRA FEW035TCU
ATIS : +33 4 95 65 82 49



MET'MAP, your aeronautical weather chart ! - Copyright ORBIFLY December 2007 - Disclaimer

ORBIFLY MET'MAP TEAM :

Programming & Development : Alexandra Zaïnal
Original concept : Baudouin d'Aumeries
Technical & hardware support : Manuel Goepfert
Assistance : Marc-Olivier Méhu




SOURCES & CREDITS :

   NOAA